createdAt,value
2019-04-07T00:02:09.756Z,3.33
2019-04-07T00:04:39.875Z,3.23
2019-04-07T00:07:10.308Z,3.30
2019-04-07T00:09:40.337Z,3.37
2019-04-07T00:12:10.420Z,3.50
2019-04-07T00:14:42.489Z,3.20
2019-04-07T00:17:12.488Z,3.67
2019-04-07T00:19:42.323Z,3.27
2019-04-07T00:22:12.736Z,3.43
2019-04-07T00:24:43.183Z,3.20
2019-04-07T00:27:13.165Z,3.60
2019-04-07T00:29:43.085Z,3.07
2019-04-07T00:32:12.997Z,3.70
2019-04-07T00:34:42.987Z,3.30
2019-04-07T00:37:13.031Z,3.27
2019-04-07T00:39:43.456Z,2.93
2019-04-07T00:42:13.567Z,3.40
2019-04-07T00:44:43.475Z,3.40
2019-04-07T00:47:14.428Z,3.27
2019-04-07T00:49:44.392Z,3.30
2019-04-07T00:52:16.253Z,3.40
2019-04-07T00:54:46.141Z,3.07
2019-04-07T00:57:16.401Z,3.40
2019-04-07T00:59:46.314Z,2.97
2019-04-07T01:02:16.930Z,3.00
2019-04-07T01:04:47.269Z,3.20
2019-04-07T01:07:17.250Z,3.30
2019-04-07T01:09:47.316Z,3.10
2019-04-07T01:12:18.254Z,3.47
2019-04-07T01:14:48.971Z,3.30
2019-04-07T01:17:19.133Z,3.97
2019-04-07T01:19:49.680Z,3.83
2019-04-07T01:22:19.636Z,3.77
2019-04-07T01:24:49.597Z,4.83
2019-04-07T01:27:19.574Z,5.23
2019-04-07T01:29:49.466Z,5.13
2019-04-07T01:32:19.294Z,3.87
2019-04-07T01:34:49.406Z,4.70
2019-04-07T01:37:19.745Z,4.20
2019-04-07T01:39:50.098Z,4.90
2019-04-07T01:42:26.155Z,5.00
2019-04-07T01:45:31.139Z,5.23
2019-04-07T01:48:08.806Z,4.60
2019-04-07T01:50:46.985Z,4.10
2019-04-07T01:53:35.805Z,4.00
2019-04-07T01:56:23.441Z,4.73
2019-04-07T01:59:07.618Z,4.87
2019-04-07T02:01:55.753Z,4.97
2019-04-07T02:04:40.852Z,5.17
2019-04-07T02:07:27.207Z,5.27
2019-04-07T02:10:30.672Z,3.80
2019-04-07T02:13:39.334Z,3.50
2019-04-07T02:16:18.242Z,3.63
2019-04-07T02:19:00.984Z,3.70
2019-04-07T02:21:46.550Z,3.40
2019-04-07T02:24:20.988Z,3.20
2019-04-07T02:27:28.414Z,3.50
2019-04-07T02:30:21.860Z,3.77
2019-04-07T02:33:02.156Z,3.50
2019-04-07T02:36:20.725Z,3.60
2019-04-07T02:38:56.909Z,3.33
2019-04-07T02:41:36.451Z,3.30
2019-04-07T02:44:25.213Z,3.60
2019-04-07T02:47:16.012Z,3.77
2019-04-07T02:50:10.749Z,3.63
2019-04-07T02:53:05.791Z,4.30
2019-04-07T02:55:42.420Z,3.83
2019-04-07T02:58:50.089Z,3.73
2019-04-07T03:01:37.518Z,3.50
2019-04-07T03:04:17.867Z,4.20
2019-04-07T03:06:56.824Z,4.27
2019-04-07T03:09:44.759Z,4.53
2019-04-07T03:12:30.700Z,4.47
2019-04-07T03:15:16.083Z,3.67
2019-04-07T03:18:12.593Z,3.80
2019-04-07T03:21:02.415Z,3.70
2019-04-07T03:23:49.698Z,3.73
2019-04-07T03:26:37.756Z,3.60
2019-04-07T03:29:18.204Z,3.67
2019-04-07T03:32:10.264Z,3.50
2019-04-07T03:34:46.807Z,3.57
2019-04-07T03:37:39.774Z,3.30
2019-04-07T03:40:20.908Z,3.83
2019-04-07T03:43:13.439Z,3.60
2019-04-07T03:45:50.015Z,4.10
2019-04-07T03:48:28.367Z,4.23
2019-04-07T03:51:04.909Z,3.80
2019-04-07T03:53:42.794Z,3.80
2019-04-07T03:56:20.259Z,3.50
2019-04-07T03:58:58.004Z,3.50
2019-04-07T04:01:45.951Z,3.80
2019-04-07T04:04:32.502Z,3.77
2019-04-07T04:07:20.135Z,3.87
2019-04-07T04:10:03.226Z,3.80
2019-04-07T04:12:39.832Z,3.30
2019-04-07T04:15:18.261Z,3.90
2019-04-07T04:17:48.312Z,3.50
2019-04-07T04:20:18.340Z,3.47
2019-04-07T04:22:48.557Z,3.57
2019-04-07T04:25:21.434Z,3.53
2019-04-07T04:27:51.465Z,3.10
2019-04-07T04:30:21.449Z,3.77
2019-04-07T04:32:52.146Z,4.13
2019-04-07T04:35:22.443Z,3.43
2019-04-07T04:37:53.969Z,3.57
2019-04-07T04:40:24.277Z,3.50
2019-04-07T04:42:55.045Z,3.70
2019-04-07T04:45:25.073Z,3.67
2019-04-07T04:47:56.082Z,4.27
2019-04-07T04:50:26.163Z,3.47
2019-04-07T04:52:56.429Z,4.07
2019-04-07T04:55:26.374Z,4.30
2019-04-07T04:57:56.612Z,3.90
2019-04-07T05:00:28.492Z,4.43
2019-04-07T05:02:59.327Z,4.13
2019-04-07T05:05:29.265Z,4.40
2019-04-07T05:08:03.637Z,4.03
2019-04-07T05:10:31.027Z,4.33
2019-04-07T05:13:01.583Z,4.03
2019-04-07T05:15:32.546Z,4.60
2019-04-07T05:18:02.697Z,4.47
2019-04-07T05:20:33.161Z,4.43
2019-04-07T05:23:03.080Z,4.90
2019-04-07T05:25:33.665Z,4.30
2019-04-07T05:28:03.815Z,4.53
2019-04-07T05:30:33.726Z,4.70
2019-04-07T05:33:04.559Z,4.47
2019-04-07T05:35:35.084Z,4.40
2019-04-07T05:38:06.742Z,4.60
2019-04-07T05:40:36.753Z,4.53
2019-04-07T05:43:07.166Z,4.30
2019-04-07T05:45:37.679Z,4.63
2019-04-07T05:48:08.267Z,4.93
2019-04-07T05:50:38.631Z,4.70
2019-04-07T05:53:12.635Z,4.93
2019-04-07T05:55:40.271Z,4.93
2019-04-07T05:58:10.605Z,5.10
2019-04-07T06:00:41.591Z,5.43
2019-04-07T06:03:12.170Z,5.47
2019-04-07T06:05:41.994Z,5.70
2019-04-07T06:08:22.607Z,5.67
2019-04-07T06:10:43.707Z,5.67
2019-04-07T06:13:14.721Z,5.47
2019-04-07T06:15:45.759Z,5.40
2019-04-07T06:18:15.791Z,5.20
2019-04-07T06:20:46.655Z,5.50
2019-04-07T06:23:17.008Z,4.67
2019-04-07T06:25:47.591Z,5.43
2019-04-07T06:28:19.108Z,5.53
2019-04-07T06:30:49.524Z,5.27
2019-04-07T06:33:19.945Z,5.27
2019-04-07T06:35:53.919Z,5.33
2019-04-07T06:38:31.110Z,5.17
2019-04-07T06:40:57.119Z,5.50
2019-04-07T06:43:25.851Z,5.47
2019-04-07T06:46:03.849Z,5.40
2019-04-07T06:48:38.019Z,5.00
2019-04-07T06:51:13.990Z,5.20
2019-04-07T06:53:55.712Z,5.77
2019-04-07T06:56:33.418Z,5.43
2019-04-07T06:59:27.317Z,5.60
2019-04-07T07:02:22.559Z,5.10
2019-04-07T07:05:06.840Z,5.50
2019-04-07T07:07:48.323Z,6.00
2019-04-07T07:10:37.013Z,5.20
2019-04-07T07:13:30.739Z,5.70
2019-04-07T07:16:15.737Z,5.97
2019-04-07T07:19:06.396Z,5.30
2019-04-07T07:21:54.048Z,5.87
2019-04-07T07:24:25.680Z,6.00
2019-04-07T07:26:57.693Z,6.60
2019-04-07T07:29:27.093Z,5.83
2019-04-07T07:32:01.913Z,6.77
2019-04-07T07:34:28.534Z,6.67
2019-04-07T07:36:58.983Z,6.20
2019-04-07T07:39:30.544Z,6.77
2019-04-07T07:42:00.565Z,5.77
2019-04-07T07:44:31.241Z,6.33
2019-04-07T07:47:02.665Z,6.70
2019-04-07T07:49:36.886Z,6.47
2019-04-07T07:52:06.046Z,5.70
2019-04-07T07:54:37.232Z,5.93
2019-04-07T07:57:07.980Z,6.17
2019-04-07T07:59:39.338Z,6.30
2019-04-07T08:02:09.830Z,6.03
2019-04-07T08:04:39.950Z,5.93
2019-04-07T08:07:13.452Z,5.57
2019-04-07T08:09:42.126Z,5.40
2019-04-07T08:12:12.694Z,5.50
2019-04-07T08:14:42.715Z,6.40
2019-04-07T08:17:12.531Z,7.50
2019-04-07T08:19:44.330Z,8.77
2019-04-07T08:22:25.325Z,13.07
2019-04-07T08:24:47.642Z,12.63
2019-04-07T08:27:17.148Z,11.57
2019-04-07T08:29:47.429Z,12.63
2019-04-07T08:32:17.645Z,12.20
2019-04-07T08:34:47.510Z,14.13
2019-04-07T08:37:17.937Z,13.57
2019-04-07T08:39:48.595Z,13.40
2019-04-07T08:42:19.721Z,12.90
2019-04-07T08:44:49.940Z,13.30
2019-04-07T08:47:22.299Z,15.10
2019-04-07T08:49:55.423Z,14.10
2019-04-07T08:52:23.469Z,15.00
2019-04-07T08:54:53.549Z,16.10
2019-04-07T08:57:27.249Z,15.90
2019-04-07T08:59:55.114Z,15.83
2019-04-07T09:02:26.870Z,18.13
2019-04-07T09:04:56.949Z,15.83
2019-04-07T09:07:27.646Z,16.80
2019-04-07T09:09:57.861Z,15.87
2019-04-07T09:12:30.921Z,17.23
2019-04-07T09:15:02.838Z,15.87
2019-04-07T09:17:50.344Z,14.77
2019-04-07T09:20:48.398Z,17.10
2019-04-07T09:23:26.357Z,14.77
2019-04-07T09:26:28.679Z,13.10
2019-04-07T09:29:08.375Z,14.27
2019-04-07T09:32:00.504Z,19.07
2019-04-07T09:34:52.259Z,17.40
2019-04-07T09:37:44.858Z,19.00
2019-04-07T09:40:21.473Z,21.43
2019-04-07T09:43:18.041Z,20.67
2019-04-07T09:46:03.557Z,20.47
2019-04-07T09:48:58.778Z,21.33
2019-04-07T09:51:41.526Z,22.77
2019-04-07T09:54:20.524Z,22.87
2019-04-07T09:57:19.121Z,22.23
2019-04-07T10:00:14.471Z,25.30
2019-04-07T10:03:12.959Z,23.47
2019-04-07T10:06:00.813Z,23.87
2019-04-07T10:08:39.311Z,24.63
2019-04-07T10:11:37.447Z,25.17
2019-04-07T10:14:18.571Z,22.90
2019-04-07T10:16:54.631Z,21.83
2019-04-07T10:19:58.834Z,23.60
2019-04-07T10:22:44.112Z,25.53
2019-04-07T10:25:36.596Z,26.33
2019-04-07T10:28:27.685Z,25.33
2019-04-07T10:31:23.553Z,25.17
2019-04-07T10:34:00.050Z,25.00
2019-04-07T10:36:42.324Z,26.60
2019-04-07T10:39:49.749Z,26.17
2019-04-07T10:42:38.825Z,26.23
2019-04-07T10:45:26.307Z,26.03
2019-04-07T10:48:15.452Z,26.63
2019-04-07T10:51:03.302Z,23.67
2019-04-07T10:53:48.286Z,23.80
2019-04-07T10:56:31.991Z,23.00
2019-04-07T10:59:19.961Z,24.93
2019-04-07T11:02:08.352Z,23.43
2019-04-07T11:04:56.398Z,25.00
2019-04-07T11:07:42.377Z,24.37
2019-04-07T11:10:34.616Z,23.70
2019-04-07T11:13:18.633Z,25.73
2019-04-07T11:16:06.594Z,25.17
2019-04-07T11:18:56.550Z,26.63
2019-04-07T11:21:45.478Z,25.37
2019-04-07T11:24:38.117Z,24.80
2019-04-07T11:27:15.045Z,25.00
2019-04-07T11:29:54.979Z,24.87
2019-04-07T11:32:32.781Z,24.20
2019-04-07T11:35:13.753Z,25.17
2019-04-07T11:37:49.617Z,23.90
2019-04-07T11:40:42.507Z,25.93
2019-04-07T11:43:28.049Z,25.83
2019-04-07T11:46:14.047Z,26.43
2019-04-07T11:49:02.783Z,26.77
2019-04-07T11:51:50.521Z,26.30
2019-04-07T11:54:42.656Z,26.47
2019-04-07T11:57:34.190Z,24.93
2019-04-07T12:00:33.414Z,25.70
2019-04-07T12:03:26.032Z,25.20
2019-04-07T12:06:14.346Z,26.90
2019-04-07T12:08:56.477Z,26.37
2019-04-07T12:11:48.397Z,27.33
2019-04-07T12:14:27.546Z,27.20
2019-04-07T12:17:15.365Z,26.63
2019-04-07T12:19:55.963Z,26.67
2019-04-07T12:22:41.720Z,27.23
2019-04-07T12:25:33.559Z,27.23
2019-04-07T12:28:28.892Z,26.97
2019-04-07T12:31:07.549Z,24.83
2019-04-07T12:33:46.398Z,26.57
2019-04-07T12:36:35.471Z,23.40
2019-04-07T12:39:34.148Z,26.27
2019-04-07T12:42:11.344Z,25.60
2019-04-07T12:44:52.851Z,26.37
2019-04-07T12:47:41.871Z,25.83
2019-04-07T12:50:35.641Z,26.40
2019-04-07T12:53:34.439Z,25.70
2019-04-07T12:56:13.477Z,26.50
2019-04-07T12:59:05.356Z,24.73
2019-04-07T13:01:48.468Z,26.20
2019-04-07T13:04:44.610Z,26.80
2019-04-07T13:07:32.575Z,25.90
2019-04-07T13:10:10.807Z,25.13
2019-04-07T13:13:07.991Z,25.83
2019-04-07T13:16:01.455Z,24.80
2019-04-07T13:18:50.016Z,23.87
2019-04-07T13:21:25.106Z,22.90
2019-04-07T13:24:07.043Z,22.93
2019-04-07T13:26:45.612Z,22.63
2019-04-07T13:29:34.526Z,22.63
2019-04-07T13:32:14.935Z,21.80
2019-04-07T13:34:56.325Z,21.43
2019-04-07T13:37:35.902Z,19.67
2019-04-07T13:40:24.201Z,19.13
2019-04-07T13:43:13.417Z,18.20
2019-04-07T13:46:17.087Z,17.43
2019-04-07T13:49:02.768Z,16.60
2019-04-07T13:51:44.819Z,17.57
2019-04-07T13:54:21.156Z,17.50
2019-04-07T13:57:07.322Z,16.40
2019-04-07T14:00:02.119Z,17.40
2019-04-07T14:02:55.999Z,18.03
2019-04-07T14:05:43.640Z,16.50
2019-04-07T14:08:31.010Z,15.60
2019-04-07T14:11:27.354Z,14.33
2019-04-07T14:14:16.772Z,15.37
2019-04-07T14:17:06.257Z,13.73
2019-04-07T14:20:01.358Z,13.47
2019-04-07T14:22:50.529Z,13.50
2019-04-07T14:25:41.904Z,13.63
2019-04-07T14:28:23.457Z,13.20
2019-04-07T14:31:11.650Z,13.57
2019-04-07T14:33:59.242Z,12.10
2019-04-07T14:36:55.201Z,12.47
2019-04-07T14:39:47.673Z,11.17
2019-04-07T14:42:39.608Z,11.77
2019-04-07T14:45:32.066Z,10.23
2019-04-07T14:48:14.713Z,10.40
2019-04-07T14:50:58.134Z,9.03
2019-04-07T14:53:40.850Z,8.83
2019-04-07T14:56:20.522Z,10.87
2019-04-07T14:59:15.359Z,9.63
2019-04-07T15:01:53.703Z,9.70
2019-04-07T15:04:29.127Z,9.30
2019-04-07T15:07:11.617Z,9.33
2019-04-07T15:09:49.059Z,8.63
2019-04-07T15:12:28.498Z,8.63
2019-04-07T15:14:58.943Z,9.03
2019-04-07T15:17:29.406Z,9.33
2019-04-07T15:19:59.389Z,8.93
2019-04-07T15:22:30.836Z,9.63
2019-04-07T15:25:01.448Z,8.70
2019-04-07T15:27:31.623Z,9.10
2019-04-07T15:30:02.367Z,10.13
2019-04-07T15:32:35.641Z,9.17
2019-04-07T15:35:06.282Z,10.67
2019-04-07T15:37:39.514Z,10.53
2019-04-07T15:40:09.036Z,10.87
2019-04-07T15:42:42.900Z,10.33
2019-04-07T15:45:12.254Z,11.40
2019-04-07T15:47:42.565Z,10.33
2019-04-07T15:50:12.636Z,10.47
2019-04-07T15:52:45.939Z,10.83
2019-04-07T15:55:14.764Z,11.50
2019-04-07T15:57:44.744Z,12.13
2019-04-07T16:00:16.429Z,11.23
2019-04-07T16:02:49.008Z,11.63
2019-04-07T16:05:18.220Z,11.97
2019-04-07T16:07:48.160Z,11.80
2019-04-07T16:10:21.292Z,10.53
2019-04-07T16:12:52.469Z,10.87
2019-04-07T16:15:23.097Z,11.13
2019-04-07T16:17:53.038Z,12.03
2019-04-07T16:20:26.266Z,11.03
2019-04-07T16:22:55.508Z,10.37
2019-04-07T16:25:27.869Z,10.70
2019-04-07T16:27:57.419Z,11.07
2019-04-07T16:30:27.343Z,11.43
2019-04-07T16:33:01.898Z,11.47
2019-04-07T16:35:29.839Z,9.93
2019-04-07T16:38:01.534Z,10.73
2019-04-07T16:40:31.769Z,10.60
2019-04-07T16:43:11.721Z,10.73
2019-04-07T16:45:33.937Z,11.00
2019-04-07T16:48:05.441Z,10.70
2019-04-07T16:50:35.417Z,10.47
2019-04-07T16:53:07.650Z,10.50
2019-04-07T16:55:40.392Z,10.80
2019-04-07T16:58:11.822Z,11.13
2019-04-07T17:00:41.942Z,10.47
2019-04-07T17:03:11.981Z,10.70
2019-04-07T17:05:42.957Z,11.20
2019-04-07T17:08:17.655Z,10.27
2019-04-07T17:10:45.408Z,10.33
2019-04-07T17:13:20.503Z,9.33
2019-04-07T17:15:50.779Z,10.20
2019-04-07T17:18:39.051Z,9.43
2019-04-07T17:21:14.018Z,10.40
2019-04-07T17:23:43.478Z,10.63
2019-04-07T17:26:13.826Z,10.60
2019-04-07T17:28:46.196Z,9.90
2019-04-07T17:31:15.917Z,10.77
2019-04-07T17:33:46.936Z,10.30
2019-04-07T17:36:20.130Z,10.60
2019-04-07T17:38:58.602Z,9.53
2019-04-07T17:41:29.085Z,10.17
2019-04-07T17:44:23.410Z,9.83
2019-04-07T17:47:18.639Z,9.90
2019-04-07T17:50:10.686Z,9.40
2019-04-07T17:53:14.932Z,9.23
2019-04-07T17:56:01.305Z,9.70
2019-04-07T17:58:59.847Z,9.47
2019-04-07T18:02:00.399Z,9.97
2019-04-07T18:04:53.809Z,10.70
2019-04-07T18:07:52.067Z,12.83
2019-04-07T18:10:39.693Z,10.33
2019-04-07T18:13:39.521Z,10.30
2019-04-07T18:16:12.241Z,9.53
2019-04-07T18:18:58.325Z,9.53
2019-04-07T18:21:48.731Z,10.20
2019-04-07T18:24:31.717Z,10.40
2019-04-07T18:27:23.940Z,9.93
2019-04-07T18:30:14.504Z,11.17
2019-04-07T18:32:58.630Z,10.07
2019-04-07T18:35:52.215Z,10.70
2019-04-07T18:38:53.658Z,9.77
2019-04-07T18:41:47.923Z,10.60
2019-04-07T18:44:25.396Z,10.63
2019-04-07T18:47:20.889Z,10.93
2019-04-07T18:50:07.643Z,12.25
2019-04-07T18:52:47.541Z,10.50
2019-04-07T18:55:45.103Z,10.07
2019-04-07T18:58:50.021Z,10.00
2019-04-07T19:01:52.458Z,10.10
2019-04-07T19:04:34.733Z,10.87
2019-04-07T19:07:27.186Z,9.97
2019-04-07T19:10:10.590Z,10.70
2019-04-07T19:12:43.787Z,9.50
2019-04-07T19:15:37.123Z,9.93
2019-04-07T19:18:14.341Z,10.03
2019-04-07T19:21:09.769Z,10.53
2019-04-07T19:24:10.732Z,9.47
2019-04-07T19:27:12.017Z,10.43
2019-04-07T19:29:43.138Z,9.40
2019-04-07T19:32:40.238Z,10.60
2019-04-07T19:35:23.890Z,9.77
2019-04-07T19:38:05.360Z,10.70
2019-04-07T19:41:00.209Z,10.90
2019-04-07T19:43:48.036Z,11.67
2019-04-07T19:46:46.105Z,12.00
2019-04-07T19:49:53.563Z,14.40
2019-04-07T19:52:45.278Z,15.13
2019-04-07T19:55:40.981Z,13.73
2019-04-07T19:58:37.252Z,14.23
2019-04-07T20:01:29.527Z,13.43
2019-04-07T20:04:12.948Z,14.80
2019-04-07T20:06:56.114Z,15.23
2019-04-07T20:09:45.844Z,13.77
2019-04-07T20:12:27.403Z,13.17
2019-04-07T20:15:17.920Z,11.20
2019-04-07T20:18:10.477Z,14.23
2019-04-07T20:20:46.629Z,13.40
2019-04-07T20:23:36.011Z,14.43
2019-04-07T20:26:24.142Z,13.17
2019-04-07T20:29:11.755Z,12.43
2019-04-07T20:31:53.475Z,12.47
2019-04-07T20:34:52.637Z,13.17
2019-04-07T20:37:41.165Z,12.07
2019-04-07T20:40:29.543Z,13.33
2019-04-07T20:43:28.450Z,13.73
2019-04-07T20:46:36.004Z,13.63
2019-04-07T20:49:34.296Z,13.43
2019-04-07T20:52:41.269Z,12.57
2019-04-07T20:55:30.952Z,11.93
2019-04-07T20:58:43.809Z,10.63
2019-04-07T21:01:25.532Z,13.37
2019-04-07T21:04:04.615Z,12.70
2019-04-07T21:06:53.972Z,12.60
2019-04-07T21:09:34.058Z,12.17
2019-04-07T21:12:33.973Z,11.93
2019-04-07T21:15:27.491Z,11.93
2019-04-07T21:18:12.677Z,12.57
2019-04-07T21:20:59.784Z,12.60
2019-04-07T21:23:41.785Z,13.13
2019-04-07T21:26:19.712Z,12.80
2019-04-07T21:29:10.987Z,12.60
2019-04-07T21:32:01.935Z,12.53
2019-04-07T21:34:49.361Z,12.43
2019-04-07T21:37:40.713Z,12.00
2019-04-07T21:40:37.889Z,12.20
2019-04-07T21:43:27.998Z,11.87
2019-04-07T21:46:22.264Z,13.23
2019-04-07T21:49:09.795Z,11.27
2019-04-07T21:51:48.585Z,12.50
2019-04-07T21:54:41.218Z,11.67
2019-04-07T21:57:36.407Z,10.83
2019-04-07T22:00:35.497Z,11.23
2019-04-07T22:03:36.184Z,11.47
2019-04-07T22:06:29.783Z,8.63
2019-04-07T22:09:09.885Z,10.63
2019-04-07T22:11:43.086Z,9.20
2019-04-07T22:14:12.420Z,10.40
2019-04-07T22:16:42.847Z,10.40
2019-04-07T22:19:15.087Z,10.47
2019-04-07T22:21:44.547Z,10.70
2019-04-07T22:24:15.171Z,9.87
2019-04-07T22:26:49.209Z,11.07
2019-04-07T22:29:16.990Z,9.67
2019-04-07T22:31:51.421Z,10.10
2019-04-07T22:34:21.583Z,10.30
2019-04-07T22:36:51.762Z,10.50
2019-04-07T22:39:22.620Z,8.73
2019-04-07T22:41:52.667Z,9.70
2019-04-07T22:44:23.263Z,10.03
2019-04-07T22:46:54.385Z,10.40
2019-04-07T22:49:28.557Z,10.33
2019-04-07T22:51:56.677Z,10.57
2019-04-07T22:54:30.800Z,10.80
2019-04-07T22:57:00.665Z,10.93
2019-04-07T22:59:30.651Z,11.47
2019-04-07T23:02:00.610Z,11.27
2019-04-07T23:04:30.757Z,12.10
2019-04-07T23:07:00.861Z,10.40
2019-04-07T23:09:31.426Z,10.53
2019-04-07T23:12:02.213Z,11.47
2019-04-07T23:14:33.805Z,9.83
2019-04-07T23:17:04.058Z,10.27
2019-04-07T23:19:34.427Z,10.00
2019-04-07T23:22:05.317Z,10.87
2019-04-07T23:24:35.311Z,10.47
2019-04-07T23:27:06.121Z,10.23
2019-04-07T23:29:36.645Z,9.37
2019-04-07T23:32:07.410Z,9.93
2019-04-07T23:34:37.498Z,11.23
2019-04-07T23:37:08.164Z,10.53
2019-04-07T23:39:38.149Z,10.53
2019-04-07T23:42:09.060Z,9.43
2019-04-07T23:44:39.422Z,9.80
2019-04-07T23:47:09.598Z,9.60
2019-04-07T23:49:40.493Z,9.40
2019-04-07T23:52:11.064Z,9.07
2019-04-07T23:54:41.868Z,9.43
2019-04-07T23:57:11.738Z,9.03
2019-04-07T23:59:42.172Z,9.23
